N428 VNLK-VNLK
Flight info
| Callsign | N428 |
|---|---|
| Flight time | N/A |
| Altitude | 2500 |
| Route | VFR |
| Aircraft | DA62/L-V/N |
Departure
| Time | 2025-07-29 19:06 |
|---|---|
| Airport | Tenzing-Hillary Airport (VNLK) |
Arrival
| Time | N/A |
|---|---|
| Airport | Tenzing-Hillary Airport (VNLK) |
| Time | Latitude | Longitude | Altitude | Speed | Heading |
|---|---|---|---|---|---|
| 2025-07-29 19:02 | 27.68770 | 86.73167 | 9328 ft | 0 kts | 319° |
| 2025-07-29 19:03 | 27.68782 | 86.73146 | 9330 ft | 0 kts | 239° |
| 2025-07-29 19:03 | 27.68442 | 86.72502 | 9029 ft | 121 kts | 238° |
| 2025-07-29 19:04 | 27.68646 | 86.70687 | 9384 ft | 121 kts | 337° |
| 2025-07-29 19:04 | 27.70563 | 86.70611 | 9522 ft | 151 kts | 3° |
| 2025-07-29 19:05 | 27.72659 | 86.70600 | 9908 ft | 155 kts | 3° |
| 2025-07-29 19:06 | 27.75975 | 86.70950 | 10600 ft | 164 kts | 14° |
| 2025-07-29 19:06 | 27.77937 | 86.71679 | 11635 ft | 129 kts | 47° |
| 2025-07-29 19:07 | 27.76789 | 86.72542 | 11838 ft | 163 kts | 194° |
| 2025-07-29 19:07 | 27.75594 | 86.72034 | 11442 ft | 198 kts | 201° |
| 2025-07-29 19:07 | 27.73004 | 86.71024 | 11449 ft | 200 kts | 193° |
| 2025-07-29 19:08 | 27.70224 | 86.70605 | 11368 ft | 204 kts | 188° |
| 2025-07-29 19:08 | 27.67367 | 86.70471 | 10818 ft | 193 kts | 150° |
| 2025-07-29 19:09 | 27.65300 | 86.71539 | 10194 ft | 176 kts | 180° |
| 2025-07-29 19:09 | 27.63335 | 86.70606 | 9314 ft | 174 kts | 266° |
| 2025-07-29 19:10 | 27.65637 | 86.69664 | 9118 ft | 133 kts | 17° |
| 2025-07-29 19:10 | 27.66405 | 86.69357 | 9325 ft | 130 kts | 295° |
| 2025-07-29 19:11 | 27.65893 | 86.69063 | 9783 ft | 159 kts | 138° |
| 2025-07-29 19:11 | 27.67458 | 86.71109 | 9334 ft | 152 kts | 39° |
| 2025-07-29 19:12 | 27.68462 | 86.72519 | 9113 ft | 114 kts | 61° |